Terminal Aerodrome Forecast
Issued by NWS New Orleans/Baton Rouge, LA

Home | Current Version | Previous Version | Text Only | Print | Product List | Glossary On
Versions: 1 2 3 4 5 6 7 8 9 10 11 12 13 14 15 16 17 18 19 20 21 22
623
FTUS44 KLIX 251734
TAFBTR
TAF
KBTR 251734Z 2518/2618 21011KT 5SM -TSRA SCT050CB OVC080
     FM252000 21012KT P6SM BKN110
     FM260700 20004KT 5SM BR BKN015
     FM261100 21004KT 1/2SM FG BKN003
     FM261400 20005KT P6SM BKN015
     FM261600 20006KT P6SM SCT045=

USA.gov is the U.S. government's official web portal to all federal, state and local government web resources and services.